Time;durP1;ratioP1;P1;durP2;ratioP2;P2;SDS_P1;SDS_P2;PMS_P1;PMS_P2;Temp;Humidity;BMP_temperature;BMP_pressure;BME280_temperature;BME280_humidity;BME280_pressure;Samples;Min_cycle;Max_cycle;Signal;HPM_P1;HPM_P2
2021/12/09 00:01:27;;;;;;;1.98;0.40;;;27.90;95.50;;;;;;5124943;27;20052;-74
2021/12/09 00:03:58;;;;;;;1.52;0.40;;;27.70;96.00;;;;;;5129612;27;20046;-74
2021/12/09 00:06:28;;;;;;;0.63;0.40;;;27.60;93.60;;;;;;5129828;27;20035;-75
2021/12/09 00:08:59;;;;;;;1.33;0.50;;;27.50;94.60;;;;;;5124449;27;20027;-74
2021/12/09 00:11:28;;;;;;;0.85;0.55;;;27.30;96.00;;;;;;5126448;27;20035;-74
2021/12/09 00:13:56;;;;;;;0.95;0.70;;;27.00;96.10;;;;;;5121328;27;20062;-74
2021/12/09 00:16:24;;;;;;;1.48;0.80;;;26.50;96.40;;;;;;5129769;27;20027;-74
2021/12/09 00:18:52;;;;;;;1.55;0.60;;;26.60;97.30;;;;;;5128263;27;20031;-76
2021/12/09 00:21:19;;;;;;;1.33;0.60;;;27.30;96.90;;;;;;5112581;27;20186;-75
2021/12/09 00:23:46;;;;;;;1.10;0.70;;;27.60;95.30;;;;;;5122191;27;20035;-77
2021/12/09 00:26:14;;;;;;;1.13;0.88;;;27.50;95.50;;;;;;5125581;27;20035;-74
2021/12/09 00:28:41;;;;;;;1.10;0.52;;;27.30;95.40;;;;;;5124305;27;20038;-75
2021/12/09 00:31:09;;;;;;;2.65;0.57;;;27.20;96.20;;;;;;5117160;27;20423;-75
2021/12/09 00:33:42;;;;;;;1.20;0.93;;;26.70;96.40;;;;;;5121367;27;20034;-74
2021/12/09 00:36:10;;;;;;;1.52;0.60;;;26.50;97.50;;;;;;5126202;27;20121;-75
2021/12/09 00:38:40;;;;;;;3.13;1.05;;;27.10;98.50;;;;;;5113859;27;20391;-73
2021/12/09 00:41:11;;;;;;;2.47;0.90;;;27.30;96.30;;;;;;5120817;27;20023;-75
2021/12/09 00:43:40;;;;;;;2.47;1.13;;;27.20;96.30;;;;;;5133109;27;20038;-76
2021/12/09 00:46:09;;;;;;;2.40;1.45;;;26.80;96.70;;;;;;5124257;27;20080;-75
2021/12/09 00:48:37;;;;;;;2.30;0.85;;;26.70;96.80;;;;;;5126209;27;20027;-77
2021/12/09 00:51:05;;;;;;;6.63;1.70;;;26.50;97.00;;;;;;5122519;27;20034;-77
2021/12/09 00:53:34;;;;;;;2.08;0.68;;;26.40;96.40;;;;;;5124632;27;20027;-77
2021/12/09 00:56:02;;;;;;;2.50;0.60;;;25.80;96.90;;;;;;5126229;27;20023;-78
2021/12/09 00:58:29;;;;;;;6.40;1.25;;;25.50;97.50;;;;;;5120338;27;20023;-78
2021/12/09 01:00:57;;;;;;;3.10;0.98;;;25.30;97.90;;;;;;5119995;27;20107;-78
2021/12/09 01:03:25;;;;;;;3.15;0.95;;;25.10;97.30;;;;;;5127007;27;20047;-77
2021/12/09 01:05:54;;;;;;;2.67;0.88;;;25.20;96.60;;;;;;5129984;27;20024;-76
2021/12/09 01:08:21;;;;;;;0.90;0.75;;;25.70;97.60;;;;;;5119212;27;20091;-76
2021/12/09 01:10:48;;;;;;;1.15;0.60;;;26.10;96.70;;;;;;5128472;27;20031;-77
2021/12/09 01:13:16;;;;;;;2.25;0.80;;;26.60;96.20;;;;;;5122720;27;20047;-74
2021/12/09 01:15:44;;;;;;;2.95;0.80;;;26.40;96.60;;;;;;5115350;28;20028;-74
2021/12/09 01:18:11;;;;;;;1.63;1.15;;;26.10;96.60;;;;;;5120084;27;20085;-73
2021/12/09 01:20:38;;;;;;;4.32;1.15;;;25.80;97.40;;;;;;5124035;27;20472;-74
2021/12/09 01:23:07;;;;;;;2.17;1.00;;;25.60;97.00;;;;;;5119974;27;20027;-75
2021/12/09 01:25:38;;;;;;;2.85;1.10;;;25.50;97.50;;;;;;5127694;27;20027;-75
2021/12/09 01:28:19;;;;;;;2.78;0.80;;;25.60;97.20;;;;;;5128013;27;20028;-75
2021/12/09 01:30:49;;;;;;;1.45;0.85;;;25.60;97.20;;;;;;5121865;27;20058;-74
2021/12/09 01:33:17;;;;;;;2.03;0.88;;;25.90;97.60;;;;;;5118390;27;20035;-74
2021/12/09 01:35:48;;;;;;;3.13;1.13;;;26.30;97.20;;;;;;5124915;27;20506;-73
2021/12/09 01:38:16;;;;;;;1.40;0.52;;;26.10;96.90;;;;;;5125542;27;20116;-74
2021/12/09 01:40:45;;;;;;;2.70;0.73;;;25.80;96.60;;;;;;5128726;27;20106;-75
2021/12/09 01:43:14;;;;;;;2.35;1.08;;;25.70;97.00;;;;;;5120072;28;20027;-76
2021/12/09 01:45:42;;;;;;;3.30;0.95;;;25.60;97.70;;;;;;5124916;28;20054;-75
2021/12/09 01:48:09;;;;;;;1.75;1.08;;;25.70;96.30;;;;;;5123147;28;20482;-74
2021/12/09 01:50:37;;;;;;;1.60;0.73;;;26.20;96.80;;;;;;5127972;28;20051;-75
2021/12/09 01:53:07;;;;;;;1.02;0.60;;;26.20;96.50;;;;;;5125497;28;20482;-76
2021/12/09 01:55:35;;;;;;;1.77;0.40;;;25.90;96.00;;;;;;5128000;28;20432;-75
2021/12/09 01:58:03;;;;;;;1.75;0.60;;;25.70;95.90;;;;;;5128815;28;20027;-75
2021/12/09 02:00:32;;;;;;;0.60;0.32;;;25.70;96.90;;;;;;5127067;28;20486;-75
2021/12/09 02:02:59;;;;;;;1.13;0.60;;;25.70;95.20;;;;;;5122660;28;20110;-74
2021/12/09 02:05:28;;;;;;;1.80;0.60;;;26.00;96.40;;;;;;5126420;28;20027;-74
2021/12/09 02:07:56;;;;;;;3.30;0.98;;;26.80;95.70;;;;;;5125548;28;20027;-74
2021/12/09 02:10:25;;;;;;;1.88;1.30;;;27.30;94.40;;;;;;5126956;28;20031;-75
2021/12/09 02:12:54;;;;;;;2.00;0.73;;;27.70;94.50;;;;;;5128626;28;20058;-75
2021/12/09 02:15:24;;;;;;;2.38;0.60;;;28.10;94.50;;;;;;5129065;28;20061;-75
2021/12/09 02:17:52;;;;;;;2.13;0.60;;;28.00;92.40;;;;;;5111717;28;20419;-77
2021/12/09 02:20:19;;;;;;;0.90;0.50;;;27.60;92.80;;;;;;5126399;28;20114;-74
2021/12/09 02:22:48;;;;;;;0.63;0.43;;;27.20;94.10;;;;;;5126671;28;20146;-74
2021/12/09 02:25:18;;;;;;;1.17;0.57;;;26.90;93.70;;;;;;5130045;28;20493;-74
2021/12/09 02:27:46;;;;;;;0.77;0.50;;;26.70;94.10;;;;;;5127072;28;20016;-75
2021/12/09 02:30:15;;;;;;;1.60;0.77;;;26.70;94.20;;;;;;5129718;28;20020;-74
2021/12/09 02:32:45;;;;;;;2.58;0.82;;;27.30;96.20;;;;;;5128850;27;20019;-73
2021/12/09 02:35:13;;;;;;;1.95;0.50;;;27.30;92.90;;;;;;5124080;27;20030;-76
2021/12/09 02:37:41;;;;;;;1.95;0.60;;;27.10;93.00;;;;;;5123729;27;20032;-75
2021/12/09 02:40:10;;;;;;;0.75;0.63;;;26.70;92.90;;;;;;5132805;27;20016;-74
2021/12/09 02:42:37;;;;;;;0.57;0.30;;;26.40;94.80;;;;;;5130354;27;20023;-75
2021/12/09 02:45:09;;;;;;;1.60;0.50;;;26.20;94.20;;;;;;5131086;27;20838;-74
2021/12/09 02:47:37;;;;;;;1.33;0.43;;;25.90;94.10;;;;;;5131057;27;20027;-75
2021/12/09 02:50:06;;;;;;;0.80;0.30;;;25.70;94.40;;;;;;5129702;27;20050;-76
2021/12/09 02:52:34;;;;;;;1.63;0.40;;;25.90;94.60;;;;;;5132187;27;20039;-77
2021/12/09 02:55:02;;;;;;;0.50;0.40;;;26.00;94.50;;;;;;5134295;27;20106;-76
2021/12/09 02:57:30;;;;;;;0.52;0.40;;;26.00;93.90;;;;;;5131882;27;20034;-76
2021/12/09 02:59:57;;;;;;;1.77;0.50;;;25.90;95.00;;;;;;5121625;27;20071;-76
2021/12/09 03:02:25;;;;;;;0.85;0.50;;;25.90;95.00;;;;;;5126726;27;20031;-74
2021/12/09 03:04:58;;;;;;;0.75;0.40;;;26.00;95.60;;;;;;5120959;27;20035;-75
2021/12/09 03:07:38;;;;;;;1.40;0.70;;;26.10;94.60;;;;;;5120339;27;20024;-75
2021/12/09 03:10:19;;;;;;;1.73;0.68;;;26.10;95.10;;;;;;5123515;27;20122;-76
2021/12/09 03:12:55;;;;;;;1.15;0.75;;;26.40;95.40;;;;;;5132579;27;20031;-76
2021/12/09 03:15:24;;;;;;;1.67;0.50;;;27.00;94.00;;;;;;5131864;27;20092;-76
2021/12/09 03:17:52;;;;;;;4.05;0.90;;;27.30;95.80;;;;;;5130063;27;20031;-76
2021/12/09 03:20:20;;;;;;;7.00;1.73;;;27.50;95.90;;;;;;5131319;27;20030;-77
2021/12/09 03:22:49;;;;;;;1.65;0.63;;;27.50;95.60;;;;;;5127214;27;20132;-77
2021/12/09 03:25:19;;;;;;;1.75;0.60;;;27.20;95.30;;;;;;5134143;27;20026;-77
2021/12/09 03:27:48;;;;;;;1.73;0.63;;;26.90;95.80;;;;;;5128836;27;20058;-77
2021/12/09 03:30:18;;;;;;;5.95;0.80;;;26.70;95.70;;;;;;5122026;27;20049;-77
2021/12/09 03:32:46;;;;;;;2.25;0.60;;;26.40;96.40;;;;;;5126038;27;20015;-77
2021/12/09 03:35:14;;;;;;;1.08;0.70;;;26.20;96.30;;;;;;5128602;27;20029;-75
2021/12/09 03:37:42;;;;;;;2.17;0.70;;;26.00;96.90;;;;;;5131923;27;20115;-75
2021/12/09 03:40:12;;;;;;;5.78;0.77;;;26.10;97.20;;;;;;5123011;27;20489;-75
2021/12/09 03:42:40;;;;;;;2.65;1.00;;;26.00;97.30;;;;;;5131340;27;20099;-76
2021/12/09 03:45:08;;;;;;;3.40;0.80;;;25.90;97.30;;;;;;5128928;27;20040;-77
2021/12/09 03:47:36;;;;;;;4.35;0.90;;;25.80;97.60;;;;;;5123275;27;20027;-77
2021/12/09 03:50:07;;;;;;;3.28;0.60;;;26.10;97.80;;;;;;5128302;27;20106;-77
2021/12/09 03:52:35;;;;;;;4.03;0.85;;;26.20;97.60;;;;;;5129654;27;20161;-75
2021/12/09 03:55:05;;;;;;;3.88;1.45;;;26.20;97.50;;;;;;5129873;27;20081;-76
2021/12/09 03:57:33;;;;;;;5.00;0.70;;;26.00;97.50;;;;;;5117644;27;20027;-75
2021/12/09 04:00:00;;;;;;;2.13;0.80;;;25.90;97.80;;;;;;5131385;27;20035;-77
2021/12/09 04:02:28;;;;;;;5.28;0.80;;;25.90;97.80;;;;;;5132919;27;20118;-78
2021/12/09 04:04:55;;;;;;;1.25;0.70;;;26.50;98.00;;;;;;5132855;27;20107;-75
2021/12/09 04:07:23;;;;;;;2.10;0.50;;;27.00;97.30;;;;;;5130264;27;20031;-79
2021/12/09 04:09:50;;;;;;;5.32;0.93;;;26.70;97.10;;;;;;5131000;27;20064;-75
2021/12/09 04:12:19;;;;;;;4.65;1.45;;;26.50;97.40;;;;;;5122510;27;20129;-77
2021/12/09 04:14:46;;;;;;;2.38;0.88;;;26.30;97.40;;;;;;5128720;27;20027;-77
2021/12/09 04:17:14;;;;;;;5.63;1.15;;;26.10;97.60;;;;;;5129901;27;20032;-76
2021/12/09 04:19:47;;;;;;;5.18;0.60;;;25.90;97.60;;;;;;5129091;27;20023;-77
2021/12/09 04:22:21;;;;;;;2.17;1.13;;;25.70;97.70;;;;;;5132546;27;20477;-75
2021/12/09 04:24:50;;;;;;;2.80;0.68;;;25.50;98.00;;;;;;5132062;27;20070;-76
2021/12/09 04:27:18;;;;;;;4.93;0.90;;;25.40;98.20;;;;;;5131696;27;20055;-75
2021/12/09 04:29:46;;;;;;;4.43;0.90;;;25.30;98.50;;;;;;5131020;27;20508;-75
2021/12/09 04:32:13;;;;;;;6.68;1.30;;;25.40;98.70;;;;;;5130939;27;20527;-75
2021/12/09 04:34:41;;;;;;;1.30;0.80;;;25.30;99.00;;;;;;5131902;27;20027;-75
2021/12/09 04:37:08;;;;;;;4.90;0.80;;;25.50;98.60;;;;;;5128981;27;20107;-76
2021/12/09 04:39:35;;;;;;;3.22;0.95;;;25.50;98.30;;;;;;5129629;27;20137;-76
2021/12/09 04:42:03;;;;;;;2.75;0.80;;;25.30;98.70;;;;;;5131622;27;20070;-77
2021/12/09 04:44:31;;;;;;;3.40;1.35;;;25.10;98.90;;;;;;5131326;27;20050;-77
2021/12/09 04:47:00;;;;;;;4.05;1.27;;;24.90;99.20;;;;;;5132312;27;20045;-77
2021/12/09 04:49:28;;;;;;;5.10;0.88;;;24.70;99.60;;;;;;5130663;27;20019;-77
2021/12/09 04:51:57;;;;;;;1.50;0.80;;;24.60;99.90;;;;;;5130339;27;20030;-77
2021/12/09 04:54:25;;;;;;;2.40;0.55;;;24.30;99.90;;;;;;5128486;27;20477;-79
2021/12/09 04:56:53;;;;;;;0.75;0.20;;;23.70;97.60;;;;;;5131323;27;20124;-79
2021/12/09 04:59:20;;;;;;;5.85;1.50;;;22.30;99.90;;;;;;5129532;27;20075;-79
2021/12/09 05:01:50;;;;;;;1.92;0.98;;;20.50;99.90;;;;;;5126840;27;20026;-82
2021/12/09 05:04:18;;;;;;;3.13;0.77;;;19.00;99.90;;;;;;5127289;27;20015;-74
2021/12/09 05:06:45;;;;;;;4.35;0.60;;;18.40;99.90;;;;;;5111515;27;20098;-75
2021/12/09 05:09:17;;;;;;;1.20;0.57;;;18.10;99.90;;;;;;5128036;27;20027;-75
2021/12/09 05:14:15;;;;;;;0.68;0.13;;;17.90;99.90;;;;;;5118891;27;20034;-79
2021/12/09 05:16:44;;;;;;;0.43;0.22;;;18.30;99.90;;;;;;5125459;27;20055;-77
2021/12/09 05:19:12;;;;;;;0.50;0.43;;;18.70;99.90;;;;;;5120163;27;20026;-76
2021/12/09 05:21:39;;;;;;;0.65;0.30;;;19.00;99.90;;;;;;5125614;27;20031;-75
2021/12/09 05:24:13;;;;;;;2.78;0.47;;;19.40;99.90;;;;;;5129485;27;20441;-79
2021/12/09 05:26:47;;;;;;;2.40;0.52;;;19.70;99.90;;;;;;5129275;27;20367;-77
2021/12/09 05:29:16;;;;;;;2.92;1.33;;;20.10;99.90;;;;;;5115056;27;20115;-78
2021/12/09 05:34:31;;;;;;;4.55;1.30;;;20.90;99.90;;;;;;5125125;27;20153;-77
2021/12/09 05:36:59;;;;;;;1.08;0.40;;;21.30;99.90;;;;;;5104578;28;20023;-78
2021/12/09 05:39:26;;;;;;;2.05;0.63;;;21.50;99.90;;;;;;5124541;27;20608;-77
2021/12/09 05:41:54;;;;;;;0.55;0.30;;;21.60;99.90;;;;;;5128265;27;20392;-75
2021/12/09 05:44:21;;;;;;;0.30;0.30;;;21.80;99.90;;;;;;5104686;28;20039;-74
2021/12/09 05:46:49;;;;;;;0.60;0.60;;;21.90;99.90;;;;;;5130700;28;20030;-75
2021/12/09 05:49:16;;;;;;;1.50;0.65;;;22.20;99.90;;;;;;5122168;28;20506;-76
2021/12/09 05:51:45;;;;;;;1.95;1.42;;;22.40;99.90;;;;;;5122690;28;20031;-76
2021/12/09 05:54:13;;;;;;;1.00;0.20;;;22.30;99.90;;;;;;5119795;28;20504;-75
2021/12/09 05:56:40;;;;;;;2.35;0.60;;;22.40;99.90;;;;;;5110675;28;20363;-75
2021/12/09 05:59:09;;;;;;;1.23;0.55;;;22.50;99.90;;;;;;5131215;28;20023;-75
2021/12/09 06:01:38;;;;;;;2.72;0.70;;;22.80;99.90;;;;;;5130925;28;20049;-76
2021/12/09 06:04:07;;;;;;;2.58;0.40;;;22.70;99.90;;;;;;5123370;28;20046;-75
2021/12/09 06:06:35;;;;;;;0.93;0.57;;;22.60;99.90;;;;;;5132268;27;20035;-75
2021/12/09 06:09:05;;;;;;;2.58;1.48;;;22.50;99.90;;;;;;5132413;27;20027;-76
2021/12/09 06:11:34;;;;;;;1.45;1.00;;;22.40;99.90;;;;;;5126842;27;20024;-77
2021/12/09 06:14:02;;;;;;;2.72;1.23;;;22.30;99.90;;;;;;5125100;27;20096;-75
2021/12/09 06:16:29;;;;;;;3.58;1.40;;;22.20;99.90;;;;;;5133728;27;20102;-76
2021/12/09 06:18:57;;;;;;;4.43;1.77;;;22.10;99.90;;;;;;5134400;27;20035;-75
2021/12/09 06:21:27;;;;;;;2.35;0.77;;;22.10;99.90;;;;;;5122708;27;20086;-75
2021/12/09 06:23:56;;;;;;;2.42;0.98;;;21.90;99.90;;;;;;5120117;27;20044;-76
2021/12/09 06:26:24;;;;;;;1.02;0.63;;;21.90;99.90;;;;;;5130868;27;20035;-76
2021/12/09 06:28:51;;;;;;;3.85;1.10;;;21.90;99.90;;;;;;5132544;27;20093;-76
2021/12/09 06:31:19;;;;;;;2.03;0.95;;;21.80;99.90;;;;;;5131742;27;20106;-77
2021/12/09 06:33:48;;;;;;;2.28;0.98;;;21.70;99.90;;;;;;5130509;27;20023;-77
2021/12/09 06:36:15;;;;;;;2.63;0.80;;;21.60;99.90;;;;;;5134958;27;20020;-77
2021/12/09 06:38:43;;;;;;;5.15;0.88;;;21.60;99.90;;;;;;5134176;27;20043;-75
2021/12/09 06:41:11;;;;;;;1.77;1.05;;;21.60;99.90;;;;;;5132404;27;20033;-76
2021/12/09 06:43:42;;;;;;;1.77;1.00;;;21.50;99.90;;;;;;5133891;27;20100;-76
2021/12/09 06:46:12;;;;;;;1.42;0.85;;;21.60;99.90;;;;;;5134798;27;20038;-76
2021/12/09 06:48:40;;;;;;;2.53;0.90;;;21.50;99.90;;;;;;5134466;27;20423;-75
2021/12/09 06:51:08;;;;;;;6.00;1.10;;;21.50;99.90;;;;;;5134692;27;20027;-74
2021/12/09 06:53:37;;;;;;;3.30;1.00;;;21.30;99.90;;;;;;5134116;27;20046;-75
2021/12/09 06:56:05;;;;;;;2.47;0.70;;;21.30;99.90;;;;;;5131220;27;20136;-76
2021/12/09 06:58:33;;;;;;;3.10;0.80;;;21.30;99.90;;;;;;5131662;27;20015;-77
2021/12/09 07:01:01;;;;;;;2.88;1.10;;;21.30;99.90;;;;;;5121459;27;20039;-77
2021/12/09 07:03:29;;;;;;;3.78;1.48;;;21.20;99.90;;;;;;5134108;27;20039;-75
2021/12/09 07:06:01;;;;;;;3.78;1.20;;;21.00;99.90;;;;;;5131477;27;20079;-74
2021/12/09 07:08:28;;;;;;;3.90;1.33;;;20.80;99.90;;;;;;5132770;27;20047;-72
2021/12/09 07:10:56;;;;;;;5.78;2.13;;;20.60;99.90;;;;;;5115145;27;20381;-74
2021/12/09 07:13:23;;;;;;;9.60;5.35;;;20.50;99.90;;;;;;5133968;27;20018;-74
2021/12/09 07:15:51;;;;;;;7.75;3.50;;;20.40;99.90;;;;;;5131880;27;20027;-75
2021/12/09 07:18:22;;;;;;;7.90;1.88;;;20.20;99.90;;;;;;5115195;27;20031;-75
2021/12/09 07:20:49;;;;;;;2.10;1.50;;;20.00;99.90;;;;;;5131950;27;20508;-77
2021/12/09 07:23:22;;;;;;;6.88;1.90;;;19.80;99.90;;;;;;5121616;27;20059;-74
2021/12/09 07:25:50;;;;;;;4.95;1.55;;;19.60;99.90;;;;;;5121281;27;20103;-74
2021/12/09 07:28:17;;;;;;;4.57;1.75;;;19.40;99.90;;;;;;5120838;27;20493;-76
2021/12/09 07:30:45;;;;;;;2.38;1.85;;;19.30;99.90;;;;;;5119184;27;20027;-76
2021/12/09 07:33:12;;;;;;;7.93;2.40;;;19.20;99.90;;;;;;5128271;27;20015;-76
2021/12/09 07:35:40;;;;;;;7.40;2.20;;;19.30;99.90;;;;;;5124447;27;20065;-75
2021/12/09 07:38:08;;;;;;;3.33;1.60;;;19.40;99.90;;;;;;5133978;27;20056;-76
2021/12/09 07:40:36;;;;;;;9.70;2.28;;;19.40;99.90;;;;;;5131810;27;20498;-73
2021/12/09 07:43:05;;;;;;;10.27;2.10;;;19.30;99.90;;;;;;5133479;27;20031;-74
2021/12/09 07:45:33;;;;;;;6.78;2.70;;;19.30;99.90;;;;;;5132096;27;20117;-76
2021/12/09 07:48:00;;;;;;;5.95;2.35;;;19.40;99.90;;;;;;5119965;27;20557;-76
2021/12/09 07:50:31;;;;;;;6.30;1.90;;;19.50;99.90;;;;;;5125970;27;20036;-76
2021/12/09 07:53:00;;;;;;;7.28;2.53;;;19.70;99.90;;;;;;5130226;27;20046;-76
2021/12/09 07:55:27;;;;;;;5.25;1.95;;;19.80;99.90;;;;;;5130127;27;20755;-76
2021/12/09 07:57:55;;;;;;;4.50;1.80;;;19.90;99.90;;;;;;5132630;27;20035;-76
2021/12/09 08:00:26;;;;;;;5.50;2.25;;;20.00;99.90;;;;;;5112753;27;20031;-75
2021/12/09 08:02:55;;;;;;;5.10;1.83;;;20.00;99.90;;;;;;5130162;27;20027;-74
2021/12/09 08:05:23;;;;;;;2.20;1.35;;;20.20;99.90;;;;;;5131845;27;20030;-72
2021/12/09 08:07:50;;;;;;;3.40;1.80;;;20.20;99.90;;;;;;5123722;27;20024;-74
2021/12/09 08:10:19;;;;;;;10.02;1.83;;;20.20;99.90;;;;;;5129629;27;20027;-73
2021/12/09 08:12:48;;;;;;;6.03;1.83;;;20.20;99.90;;;;;;5131234;27;20031;-74
2021/12/09 08:15:17;;;;;;;3.63;1.85;;;20.20;99.90;;;;;;5131400;27;20030;-74
2021/12/09 08:17:59;;;;;;;4.22;2.75;;;20.10;99.90;;;;;;5127710;27;20026;-74
2021/12/09 08:20:27;;;;;;;3.20;1.40;;;20.10;99.90;;;;;;5126444;27;20627;-74
2021/12/09 08:22:55;;;;;;;3.78;2.50;;;20.10;99.90;;;;;;5131852;27;20070;-75
2021/12/09 08:25:23;;;;;;;9.32;3.90;;;20.10;99.90;;;;;;5119467;27;20042;-73
2021/12/09 08:27:51;;;;;;;6.93;3.50;;;20.00;99.90;;;;;;5132270;27;20448;-74
2021/12/09 08:30:24;;;;;;;11.13;4.80;;;20.00;99.90;;;;;;5121037;27;20050;-73
2021/12/09 08:32:53;;;;;;;9.90;5.07;;;20.10;99.90;;;;;;5131734;27;20029;-73
2021/12/09 08:35:21;;;;;;;8.05;4.32;;;20.20;99.90;;;;;;5130446;27;20019;-74
2021/12/09 08:37:50;;;;;;;8.75;3.20;;;20.20;99.90;;;;;;5131491;27;20058;-76
2021/12/09 08:40:20;;;;;;;5.93;2.50;;;20.20;99.90;;;;;;5131457;27;20027;-76
2021/12/09 08:42:49;;;;;;;4.80;2.70;;;20.30;99.90;;;;;;5127195;27;20019;-77
2021/12/09 08:45:17;;;;;;;8.40;2.65;;;20.20;99.90;;;;;;5128111;27;20492;-76
2021/12/09 08:47:45;;;;;;;4.78;2.72;;;20.10;99.90;;;;;;5129136;27;20034;-76
2021/12/09 08:50:18;;;;;;;5.28;2.67;;;20.10;99.90;;;;;;5131127;27;20031;-77
2021/12/09 08:52:48;;;;;;;4.32;2.22;;;20.00;99.90;;;;;;5126586;27;20073;-73
2021/12/09 08:55:17;;;;;;;4.57;2.13;;;20.00;99.90;;;;;;5125977;27;20159;-77
2021/12/09 08:57:46;;;;;;;4.40;1.60;;;20.00;99.90;;;;;;5128819;27;20031;-76
2021/12/09 09:00:16;;;;;;;5.43;1.65;;;19.90;99.90;;;;;;5130307;27;20415;-75
2021/12/09 09:02:47;;;;;;;5.32;2.05;;;19.90;99.90;;;;;;5129768;27;20480;-76
2021/12/09 09:05:15;;;;;;;1.77;1.30;;;19.80;99.90;;;;;;5130307;27;20588;-75
2021/12/09 09:07:44;;;;;;;2.47;1.30;;;19.80;99.90;;;;;;5126536;27;20022;-75
2021/12/09 09:10:14;;;;;;;5.82;2.72;;;19.70;99.90;;;;;;5120394;27;20062;-75
2021/12/09 09:12:42;;;;;;;2.45;1.25;;;19.60;99.90;;;;;;5120873;27;20023;-76
2021/12/09 09:15:12;;;;;;;3.22;0.98;;;19.60;99.90;;;;;;5121029;27;20024;-76
2021/12/09 09:17:40;;;;;;;2.95;1.35;;;19.60;99.90;;;;;;5121477;27;20023;-75
2021/12/09 09:20:10;;;;;;;3.13;1.83;;;19.60;99.90;;;;;;5119748;27;20027;-76
2021/12/09 09:22:40;;;;;;;3.80;1.50;;;19.60;99.90;;;;;;5115229;27;20489;-76
2021/12/09 09:25:11;;;;;;;2.25;1.45;;;19.50;99.90;;;;;;5122104;27;20039;-76
2021/12/09 09:27:38;;;;;;;5.80;1.88;;;19.50;99.90;;;;;;5119894;27;20027;-76
2021/12/09 09:30:07;;;;;;;4.70;1.77;;;19.40;99.90;;;;;;5116942;27;20084;-76
2021/12/09 09:32:35;;;;;;;4.95;1.35;;;19.50;99.90;;;;;;5119380;27;20397;-75
2021/12/09 09:35:03;;;;;;;2.80;1.38;;;19.50;99.90;;;;;;5119573;27;20027;-75
2021/12/09 09:37:30;;;;;;;4.63;1.48;;;19.40;99.90;;;;;;5118902;27;20113;-76
2021/12/09 09:39:57;;;;;;;1.50;1.00;;;19.50;99.90;;;;;;5129728;27;20469;-76
2021/12/09 09:45:13;;;;;;;4.57;1.38;;;19.60;99.90;;;;;;5119659;27;20039;-75
2021/12/09 09:47:41;;;;;;;5.05;1.40;;;19.50;99.90;;;;;;5116584;28;20027;-75
2021/12/09 09:50:11;;;;;;;2.28;1.45;;;19.60;99.90;;;;;;5119713;28;20133;-75
2021/12/09 09:52:40;;;;;;;1.83;1.00;;;19.60;99.90;;;;;;5120375;28;20081;-74
2021/12/09 09:55:10;;;;;;;1.98;0.93;;;19.60;99.90;;;;;;5123461;28;20032;-75
2021/12/09 09:57:38;;;;;;;4.35;1.23;;;19.60;99.90;;;;;;5121596;28;20038;-76
2021/12/09 10:00:09;;;;;;;3.22;1.10;;;19.60;99.90;;;;;;5118716;28;20088;-77
2021/12/09 10:02:37;;;;;;;3.50;1.33;;;19.60;99.90;;;;;;5121353;28;20020;-78
2021/12/09 10:05:07;;;;;;;2.13;1.00;;;19.60;99.90;;;;;;5123310;28;20115;-77
2021/12/09 10:07:35;;;;;;;2.85;1.30;;;19.60;99.90;;;;;;5124874;28;20031;-78
2021/12/09 10:10:07;;;;;;;1.77;1.63;;;19.50;99.90;;;;;;5125077;28;20123;-76
2021/12/09 10:12:34;;;;;;;2.10;1.38;;;19.50;99.90;;;;;;5125519;28;20047;-76
2021/12/09 10:15:04;;;;;;;5.85;1.67;;;19.40;99.90;;;;;;5125374;28;20031;-76
2021/12/09 10:17:33;;;;;;;2.45;1.05;;;19.40;99.90;;;;;;5121718;28;20023;-77
2021/12/09 10:20:05;;;;;;;3.35;1.10;;;19.30;99.90;;;;;;5129335;28;20031;-78
2021/12/09 10:22:35;;;;;;;2.00;1.17;;;19.30;99.90;;;;;;5116680;28;20469;-76
2021/12/09 10:25:19;;;;;;;1.60;1.02;;;19.20;99.90;;;;;;5123047;28;20172;-77
2021/12/09 10:27:59;;;;;;;3.90;1.30;;;19.20;99.90;;;;;;5121672;28;20481;-78
2021/12/09 10:30:27;;;;;;;3.55;1.23;;;19.20;99.90;;;;;;5126016;28;20023;-78
2021/12/09 10:33:02;;;;;;;4.68;1.30;;;19.20;99.90;;;;;;5123162;28;20362;-80
2021/12/09 10:35:29;;;;;;;2.50;1.48;;;19.10;99.90;;;;;;5122778;28;20019;-76
2021/12/09 10:37:57;;;;;;;3.50;1.90;;;19.10;99.90;;;;;;5129829;28;20058;-75
2021/12/09 10:40:26;;;;;;;4.85;1.73;;;19.10;99.90;;;;;;5122501;28;20027;-77
2021/12/09 10:43:03;;;;;;;4.38;1.40;;;19.00;99.90;;;;;;5128998;28;20136;-78
2021/12/09 10:45:34;;;;;;;8.05;2.13;;;19.00;99.90;;;;;;5127960;28;20039;-78
2021/12/09 10:48:27;;;;;;;2.47;1.50;;;19.00;99.90;;;;;;5114990;28;20106;-75
2021/12/09 10:55:59;;;;;;;3.05;1.25;;;18.90;99.90;;;;;;5131748;27;20333;-76
2021/12/09 10:58:33;;;;;;;2.85;1.63;;;18.80;99.90;;;;;;5121259;27;20027;-79
2021/12/09 11:01:00;;;;;;;5.72;2.65;;;18.70;99.90;;;;;;5126592;27;20811;-76
2021/12/09 11:03:29;;;;;;;4.68;1.80;;;18.70;99.90;;;;;;5130569;27;20058;-77
2021/12/09 11:06:04;;;;;;;2.65;1.35;;;18.60;99.90;;;;;;5123683;27;20034;-78
2021/12/09 11:08:46;;;;;;;5.15;1.50;;;18.60;99.90;;;;;;5125915;27;20098;-76
2021/12/09 11:11:28;;;;;;;4.55;1.38;;;18.50;99.90;;;;;;5121489;27;20031;-76
2021/12/09 11:14:13;;;;;;;2.65;1.60;;;18.40;99.90;;;;;;5124344;27;20023;-77
2021/12/09 11:16:44;;;;;;;2.03;1.20;;;18.40;99.90;;;;;;5131402;27;20073;-77
2021/12/09 11:19:23;;;;;;;1.42;0.85;;;18.30;99.90;;;;;;5127552;27;20035;-76
2021/12/09 11:21:58;;;;;;;4.22;1.63;;;18.30;99.90;;;;;;5125940;27;20092;-77
2021/12/09 11:24:31;;;;;;;3.35;1.45;;;18.30;99.90;;;;;;5132039;27;20046;-78
2021/12/09 11:27:04;;;;;;;3.17;1.65;;;18.20;99.90;;;;;;5130140;27;20030;-75
2021/12/09 11:29:42;;;;;;;2.60;1.48;;;18.20;99.90;;;;;;5132518;27;20035;-77
2021/12/09 11:32:32;;;;;;;2.15;1.13;;;18.30;99.90;;;;;;5125807;27;20461;-77
2021/12/09 11:35:25;;;;;;;4.32;1.85;;;18.20;99.90;;;;;;5128772;27;21283;-77
2021/12/09 11:40:36;;;;;;;3.22;1.85;;;18.30;99.90;;;;;;5126500;27;20033;-77
2021/12/09 11:43:06;;;;;;;3.25;1.52;;;18.30;99.90;;;;;;5128274;27;20246;-76
2021/12/09 11:45:37;;;;;;;4.55;2.45;;;18.30;99.90;;;;;;5112954;27;20027;-77
2021/12/09 11:48:07;;;;;;;3.78;2.03;;;18.30;99.90;;;;;;5129319;27;20050;-77
2021/12/09 11:50:40;;;;;;;2.95;1.38;;;18.20;99.90;;;;;;5126267;27;20064;-77
2021/12/09 11:53:10;;;;;;;5.43;1.48;;;18.20;99.90;;;;;;5128823;27;20015;-75
2021/12/09 11:55:43;;;;;;;1.98;1.30;;;18.30;99.90;;;;;;5117794;27;20482;-78
2021/12/09 11:58:29;;;;;;;3.13;1.45;;;18.30;99.90;;;;;;5127310;27;20484;-79
2021/12/09 12:07:19;;;;;;;3.75;2.13;;;18.30;99.90;;;;;;5125113;27;20069;-78
2021/12/09 12:21:42;;;;;;;4.07;1.48;;;18.30;99.90;;;;;;5128180;27;20599;-77
2021/12/09 12:25:27;;;;;;;4.80;1.30;;;18.30;99.90;;;;;;5123831;27;20049;-78
2021/12/09 12:27:56;;;;;;;2.78;1.80;;;18.30;99.90;;;;;;5112182;27;20031;-79
2021/12/09 12:33:38;;;;;;;3.65;1.80;;;18.30;99.90;;;;;;5122130;27;20541;-78
2021/12/09 12:36:42;;;;;;;3.88;1.83;;;18.30;99.90;;;;;;5121639;27;20027;-77
2021/12/09 12:39:18;;;;;;;3.88;2.40;;;18.30;99.90;;;;;;5120808;27;20048;-76
2021/12/09 12:42:03;;;;;;;4.00;1.60;;;18.30;99.90;;;;;;5131111;27;20015;-77
2021/12/09 12:44:32;;;;;;;4.57;2.43;;;18.30;99.90;;;;;;5126439;27;20484;-76
2021/12/09 12:47:14;;;;;;;5.80;1.73;;;18.30;99.90;;;;;;5130352;27;20023;-78
2021/12/09 12:49:47;;;;;;;3.67;1.88;;;18.30;99.90;;;;;;5112235;28;20024;-76
2021/12/09 12:52:28;;;;;;;3.03;1.95;;;18.20;99.90;;;;;;5119309;27;20034;-77
2021/12/09 12:55:12;;;;;;;6.15;1.55;;;18.20;99.90;;;;;;5127027;27;20034;-77
2021/12/09 12:57:47;;;;;;;3.20;2.33;;;18.10;99.90;;;;;;5120303;27;20680;-78
2021/12/09 13:00:20;;;;;;;3.13;1.70;;;18.10;99.90;;;;;;5119692;27;20059;-78
2021/12/09 13:08:49;;;;;;;3.83;0.80;;;17.50;99.90;;;;;;5123464;27;20132;-76
2021/12/09 13:13:42;;;;;;;1.13;0.60;;;17.10;99.90;;;;;;5125191;27;20035;-77
2021/12/09 13:19:18;;;;;;;1.27;0.45;;;16.80;99.90;;;;;;5122636;27;20051;-77
2021/12/09 13:22:00;;;;;;;1.63;0.40;;;16.70;99.90;;;;;;5126794;27;20051;-77
2021/12/09 13:24:54;;;;;;;2.58;0.40;;;16.50;99.90;;;;;;5120675;27;20394;-78
2021/12/09 13:39:22;;;;;;;0.68;0.43;;;16.10;99.90;;;;;;5109601;27;20049;-76
2021/12/09 13:47:43;;;;;;;1.58;0.75;;;15.90;99.90;;;;;;5119110;27;20039;-77
2021/12/09 13:56:00;;;;;;;2.83;0.75;;;16.00;99.90;;;;;;5122254;28;20156;-75
2021/12/09 13:58:27;;;;;;;2.63;0.88;;;16.00;99.90;;;;;;5114953;28;20442;-75
2021/12/09 14:00:55;;;;;;;1.25;0.43;;;16.00;99.90;;;;;;5115682;28;20092;-75
2021/12/09 14:03:26;;;;;;;1.67;0.40;;;16.00;99.90;;;;;;5128193;28;20152;-76
2021/12/09 14:06:09;;;;;;;0.50;0.45;;;16.00;99.90;;;;;;5118506;28;20028;-78
2021/12/09 14:08:54;;;;;;;0.40;0.30;;;16.00;99.90;;;;;;5127231;28;20490;-76
2021/12/09 14:11:29;;;;;;;0.73;0.30;;;16.00;99.90;;;;;;5130911;28;20030;-78
2021/12/09 14:14:11;;;;;;;1.48;0.52;;;16.00;99.90;;;;;;5115451;28;20058;-76